sensor_id;sensor_type;location;lat;lon;timestamp;P1;durP1;ratioP1;P2;durP2;ratioP2
31808;SDS011;18379;48.208;-1.518;2023-08-21T00:02:25;51.40;;;48.10;;
31808;SDS011;18379;48.208;-1.518;2023-08-21T00:07:28;51.27;;;47.97;;
31808;SDS011;18379;48.208;-1.518;2023-08-21T00:12:28;51.40;;;48.00;;
31808;SDS011;18379;48.208;-1.518;2023-08-21T00:17:29;51.27;;;47.87;;
31808;SDS011;18379;48.208;-1.518;2023-08-21T00:22:30;51.87;;;48.43;;
31808;SDS011;18379;48.208;-1.518;2023-08-21T00:27:30;51.17;;;47.97;;
31808;SDS011;18379;48.208;-1.518;2023-08-21T00:32:31;50.97;;;47.50;;
31808;SDS011;18379;48.208;-1.518;2023-08-21T00:37:33;51.17;;;47.87;;
31808;SDS011;18379;48.208;-1.518;2023-08-21T00:42:34;51.87;;;48.23;;
31808;SDS011;18379;48.208;-1.518;2023-08-21T00:47:35;50.80;;;47.40;;
31808;SDS011;18379;48.208;-1.518;2023-08-21T00:52:36;51.40;;;48.03;;
31808;SDS011;18379;48.208;-1.518;2023-08-21T00:57:42;51.03;;;47.80;;
31808;SDS011;18379;48.208;-1.518;2023-08-21T01:02:44;51.17;;;47.93;;
31808;SDS011;18379;48.208;-1.518;2023-08-21T01:07:47;52.23;;;48.67;;
31808;SDS011;18379;48.208;-1.518;2023-08-21T01:18:09;51.33;;;47.90;;
31808;SDS011;18379;48.208;-1.518;2023-08-21T01:23:25;51.17;;;47.83;;
31808;SDS011;18379;48.208;-1.518;2023-08-21T01:28:28;51.10;;;47.67;;
31808;SDS011;18379;48.208;-1.518;2023-08-21T01:33:30;51.10;;;47.73;;
31808;SDS011;18379;48.208;-1.518;2023-08-21T01:38:35;51.10;;;47.73;;
31808;SDS011;18379;48.208;-1.518;2023-08-21T01:43:37;51.10;;;47.50;;
31808;SDS011;18379;48.208;-1.518;2023-08-21T01:48:37;51.43;;;48.03;;
31808;SDS011;18379;48.208;-1.518;2023-08-21T01:53:38;51.37;;;48.17;;
31808;SDS011;18379;48.208;-1.518;2023-08-21T01:58:39;51.03;;;47.53;;
31808;SDS011;18379;48.208;-1.518;2023-08-21T02:03:40;50.83;;;47.67;;
31808;SDS011;18379;48.208;-1.518;2023-08-21T02:08:41;51.37;;;48.13;;
31808;SDS011;18379;48.208;-1.518;2023-08-21T02:13:42;51.27;;;47.77;;
31808;SDS011;18379;48.208;-1.518;2023-08-21T02:18:43;50.97;;;47.40;;
31808;SDS011;18379;48.208;-1.518;2023-08-21T02:23:44;52.17;;;48.57;;
31808;SDS011;18379;48.208;-1.518;2023-08-21T02:28:44;51.43;;;48.13;;
31808;SDS011;18379;48.208;-1.518;2023-08-21T02:33:45;51.37;;;48.17;;
31808;SDS011;18379;48.208;-1.518;2023-08-21T02:38:46;51.53;;;48.13;;
31808;SDS011;18379;48.208;-1.518;2023-08-21T02:43:47;51.60;;;48.13;;
31808;SDS011;18379;48.208;-1.518;2023-08-21T02:48:48;51.43;;;47.93;;
31808;SDS011;18379;48.208;-1.518;2023-08-21T02:53:48;51.93;;;48.33;;
31808;SDS011;18379;48.208;-1.518;2023-08-21T02:58:49;51.53;;;48.07;;
31808;SDS011;18379;48.208;-1.518;2023-08-21T03:03:50;51.63;;;48.03;;
31808;SDS011;18379;48.208;-1.518;2023-08-21T03:08:51;51.93;;;48.27;;
31808;SDS011;18379;48.208;-1.518;2023-08-21T03:13:51;51.43;;;48.17;;
31808;SDS011;18379;48.208;-1.518;2023-08-21T03:18:56;51.90;;;48.40;;
31808;SDS011;18379;48.208;-1.518;2023-08-21T03:23:59;52.90;;;49.20;;
31808;SDS011;18379;48.208;-1.518;2023-08-21T03:28:59;51.40;;;48.00;;
31808;SDS011;18379;48.208;-1.518;2023-08-21T03:34:00;51.10;;;47.57;;
31808;SDS011;18379;48.208;-1.518;2023-08-21T03:39:02;51.47;;;48.03;;
31808;SDS011;18379;48.208;-1.518;2023-08-21T03:44:04;51.87;;;48.00;;
31808;SDS011;18379;48.208;-1.518;2023-08-21T03:49:05;51.77;;;48.37;;
31808;SDS011;18379;48.208;-1.518;2023-08-21T03:54:06;51.53;;;48.23;;
31808;SDS011;18379;48.208;-1.518;2023-08-21T03:59:07;51.80;;;48.43;;
31808;SDS011;18379;48.208;-1.518;2023-08-21T04:04:07;51.73;;;47.97;;
31808;SDS011;18379;48.208;-1.518;2023-08-21T04:09:08;51.77;;;48.30;;
31808;SDS011;18379;48.208;-1.518;2023-08-21T04:14:09;50.97;;;47.60;;
31808;SDS011;18379;48.208;-1.518;2023-08-21T04:19:10;51.97;;;48.57;;
31808;SDS011;18379;48.208;-1.518;2023-08-21T04:24:10;52.23;;;48.30;;
31808;SDS011;18379;48.208;-1.518;2023-08-21T04:29:11;50.83;;;47.43;;
31808;SDS011;18379;48.208;-1.518;2023-08-21T04:34:12;50.97;;;47.53;;
31808;SDS011;18379;48.208;-1.518;2023-08-21T04:39:13;51.60;;;48.13;;
31808;SDS011;18379;48.208;-1.518;2023-08-21T04:44:13;51.93;;;48.43;;
31808;SDS011;18379;48.208;-1.518;2023-08-21T04:49:14;51.10;;;47.83;;
31808;SDS011;18379;48.208;-1.518;2023-08-21T04:54:15;51.73;;;48.43;;
31808;SDS011;18379;48.208;-1.518;2023-08-21T04:59:16;51.40;;;47.80;;
31808;SDS011;18379;48.208;-1.518;2023-08-21T05:04:17;51.53;;;48.33;;
31808;SDS011;18379;48.208;-1.518;2023-08-21T05:09:18;50.80;;;47.33;;
31808;SDS011;18379;48.208;-1.518;2023-08-21T05:14:18;51.00;;;47.70;;
31808;SDS011;18379;48.208;-1.518;2023-08-21T05:19:20;50.83;;;47.57;;
31808;SDS011;18379;48.208;-1.518;2023-08-21T05:24:21;51.67;;;47.77;;
31808;SDS011;18379;48.208;-1.518;2023-08-21T05:29:22;50.87;;;47.57;;
31808;SDS011;18379;48.208;-1.518;2023-08-21T05:34:23;51.57;;;48.10;;
31808;SDS011;18379;48.208;-1.518;2023-08-21T05:39:25;51.23;;;47.63;;
31808;SDS011;18379;48.208;-1.518;2023-08-21T05:44:26;51.83;;;47.87;;
31808;SDS011;18379;48.208;-1.518;2023-08-21T05:49:27;51.77;;;48.30;;
31808;SDS011;18379;48.208;-1.518;2023-08-21T05:54:27;51.53;;;47.97;;
31808;SDS011;18379;48.208;-1.518;2023-08-21T05:59:30;51.60;;;48.13;;
31808;SDS011;18379;48.208;-1.518;2023-08-21T06:04:31;51.07;;;47.83;;
31808;SDS011;18379;48.208;-1.518;2023-08-21T06:09:32;51.30;;;47.90;;
31808;SDS011;18379;48.208;-1.518;2023-08-21T06:14:34;51.77;;;48.17;;
31808;SDS011;18379;48.208;-1.518;2023-08-21T06:19:35;52.00;;;48.40;;
31808;SDS011;18379;48.208;-1.518;2023-08-21T06:24:36;51.90;;;48.30;;
31808;SDS011;18379;48.208;-1.518;2023-08-21T06:29:37;52.07;;;48.30;;
31808;SDS011;18379;48.208;-1.518;2023-08-21T06:34:38;52.93;;;48.87;;
31808;SDS011;18379;48.208;-1.518;2023-08-21T06:39:39;52.67;;;48.73;;
31808;SDS011;18379;48.208;-1.518;2023-08-21T06:44:39;52.10;;;48.40;;
31808;SDS011;18379;48.208;-1.518;2023-08-21T06:49:40;53.53;;;49.63;;
31808;SDS011;18379;48.208;-1.518;2023-08-21T06:54:41;52.80;;;49.17;;
31808;SDS011;18379;48.208;-1.518;2023-08-21T06:59:42;53.40;;;49.33;;
31808;SDS011;18379;48.208;-1.518;2023-08-21T07:04:43;53.70;;;49.37;;
31808;SDS011;18379;48.208;-1.518;2023-08-21T07:09:44;52.90;;;49.40;;
31808;SDS011;18379;48.208;-1.518;2023-08-21T07:14:44;52.83;;;49.03;;
31808;SDS011;18379;48.208;-1.518;2023-08-21T07:19:45;53.43;;;49.43;;
31808;SDS011;18379;48.208;-1.518;2023-08-21T07:24:46;51.97;;;48.67;;
31808;SDS011;18379;48.208;-1.518;2023-08-21T07:29:47;52.07;;;48.67;;
31808;SDS011;18379;48.208;-1.518;2023-08-21T07:34:52;52.57;;;48.87;;
31808;SDS011;18379;48.208;-1.518;2023-08-21T07:39:54;54.27;;;49.97;;
31808;SDS011;18379;48.208;-1.518;2023-08-21T07:44:57;53.20;;;49.47;;
31808;SDS011;18379;48.208;-1.518;2023-08-21T07:49:58;52.90;;;49.00;;
31808;SDS011;18379;48.208;-1.518;2023-08-21T07:54:59;54.07;;;50.13;;
31808;SDS011;18379;48.208;-1.518;2023-08-21T08:00:00;52.77;;;49.27;;
31808;SDS011;18379;48.208;-1.518;2023-08-21T08:05:01;53.53;;;49.67;;
31808;SDS011;18379;48.208;-1.518;2023-08-21T08:10:03;52.90;;;49.27;;
31808;SDS011;18379;48.208;-1.518;2023-08-21T08:15:04;53.70;;;49.90;;
31808;SDS011;18379;48.208;-1.518;2023-08-21T08:20:05;53.00;;;49.47;;
31808;SDS011;18379;48.208;-1.518;2023-08-21T08:25:07;53.27;;;49.77;;
31808;SDS011;18379;48.208;-1.518;2023-08-21T08:30:08;53.60;;;50.07;;
31808;SDS011;18379;48.208;-1.518;2023-08-21T08:35:11;53.63;;;49.87;;
31808;SDS011;18379;48.208;-1.518;2023-08-21T08:40:14;52.77;;;49.33;;
31808;SDS011;18379;48.208;-1.518;2023-08-21T08:45:15;53.57;;;49.77;;
31808;SDS011;18379;48.208;-1.518;2023-08-21T08:50:31;53.97;;;50.40;;
31808;SDS011;18379;48.208;-1.518;2023-08-21T08:55:32;53.43;;;49.80;;
31808;SDS011;18379;48.208;-1.518;2023-08-21T09:00:33;53.03;;;49.60;;
31808;SDS011;18379;48.208;-1.518;2023-08-21T09:05:34;53.97;;;50.23;;
31808;SDS011;18379;48.208;-1.518;2023-08-21T09:10:38;54.00;;;50.40;;
31808;SDS011;18379;48.208;-1.518;2023-08-21T09:15:41;54.47;;;50.70;;
31808;SDS011;18379;48.208;-1.518;2023-08-21T09:20:43;54.33;;;50.73;;
31808;SDS011;18379;48.208;-1.518;2023-08-21T09:25:46;54.23;;;50.47;;
31808;SDS011;18379;48.208;-1.518;2023-08-21T09:35:53;54.80;;;51.10;;
31808;SDS011;18379;48.208;-1.518;2023-08-21T09:40:55;53.90;;;50.50;;
31808;SDS011;18379;48.208;-1.518;2023-08-21T09:45:56;54.33;;;50.73;;
31808;SDS011;18379;48.208;-1.518;2023-08-21T09:50:57;54.77;;;50.87;;
31808;SDS011;18379;48.208;-1.518;2023-08-21T09:56:00;54.17;;;50.67;;
31808;SDS011;18379;48.208;-1.518;2023-08-21T10:01:07;54.97;;;51.17;;
31808;SDS011;18379;48.208;-1.518;2023-08-21T10:06:17;54.43;;;50.83;;
31808;SDS011;18379;48.208;-1.518;2023-08-21T10:11:19;55.20;;;51.20;;
31808;SDS011;18379;48.208;-1.518;2023-08-21T10:16:21;55.20;;;51.60;;
31808;SDS011;18379;48.208;-1.518;2023-08-21T10:21:22;54.55;;;50.85;;
31808;SDS011;18379;48.208;-1.518;2023-08-21T10:26:25;54.40;;;50.83;;
31808;SDS011;18379;48.208;-1.518;2023-08-21T10:41:54;55.50;;;51.65;;
31808;SDS011;18379;48.208;-1.518;2023-08-21T10:46:55;55.40;;;51.50;;
31808;SDS011;18379;48.208;-1.518;2023-08-21T10:52:26;55.80;;;51.85;;
31808;SDS011;18379;48.208;-1.518;2023-08-21T10:57:29;56.42;;;52.53;;
31808;SDS011;18379;48.208;-1.518;2023-08-21T11:02:31;55.03;;;51.28;;
31808;SDS011;18379;48.208;-1.518;2023-08-21T11:07:36;55.47;;;51.47;;
31808;SDS011;18379;48.208;-1.518;2023-08-21T11:12:38;55.28;;;51.42;;
31808;SDS011;18379;48.208;-1.518;2023-08-21T11:17:59;55.45;;;51.75;;
31808;SDS011;18379;48.208;-1.518;2023-08-21T11:23:02;55.33;;;51.60;;
31808;SDS011;18379;48.208;-1.518;2023-08-21T11:28:07;55.85;;;52.17;;
31808;SDS011;18379;48.208;-1.518;2023-08-21T11:33:09;55.50;;;51.80;;
31808;SDS011;18379;48.208;-1.518;2023-08-21T11:38:18;55.80;;;52.00;;
31808;SDS011;18379;48.208;-1.518;2023-08-21T11:43:33;55.90;;;51.95;;
31808;SDS011;18379;48.208;-1.518;2023-08-21T11:48:38;55.63;;;51.85;;
31808;SDS011;18379;48.208;-1.518;2023-08-21T11:53:41;55.78;;;52.17;;
31808;SDS011;18379;48.208;-1.518;2023-08-21T11:58:43;55.40;;;51.67;;
31808;SDS011;18379;48.208;-1.518;2023-08-21T12:03:45;56.00;;;52.20;;
31808;SDS011;18379;48.208;-1.518;2023-08-21T12:08:54;56.38;;;52.67;;
31808;SDS011;18379;48.208;-1.518;2023-08-21T12:13:55;56.25;;;52.55;;
31808;SDS011;18379;48.208;-1.518;2023-08-21T12:18:56;55.83;;;51.80;;
31808;SDS011;18379;48.208;-1.518;2023-08-21T12:23:57;56.22;;;52.42;;
31808;SDS011;18379;48.208;-1.518;2023-08-21T12:29:00;56.67;;;52.55;;
31808;SDS011;18379;48.208;-1.518;2023-08-21T12:34:02;56.63;;;52.72;;
31808;SDS011;18379;48.208;-1.518;2023-08-21T12:39:03;56.67;;;52.80;;
31808;SDS011;18379;48.208;-1.518;2023-08-21T12:44:05;55.90;;;52.20;;
31808;SDS011;18379;48.208;-1.518;2023-08-21T12:49:08;56.58;;;52.63;;
31808;SDS011;18379;48.208;-1.518;2023-08-21T12:54:09;56.72;;;52.92;;
31808;SDS011;18379;48.208;-1.518;2023-08-21T12:59:10;56.17;;;52.45;;
31808;SDS011;18379;48.208;-1.518;2023-08-21T13:04:11;57.05;;;53.03;;
31808;SDS011;18379;48.208;-1.518;2023-08-21T13:09:11;56.42;;;52.72;;
31808;SDS011;18379;48.208;-1.518;2023-08-21T13:14:12;57.08;;;52.97;;
31808;SDS011;18379;48.208;-1.518;2023-08-21T13:19:13;57.08;;;53.38;;
31808;SDS011;18379;48.208;-1.518;2023-08-21T13:24:14;56.50;;;52.80;;
31808;SDS011;18379;48.208;-1.518;2023-08-21T13:29:14;57.53;;;53.42;;
31808;SDS011;18379;48.208;-1.518;2023-08-21T13:34:15;57.80;;;53.60;;
31808;SDS011;18379;48.208;-1.518;2023-08-21T13:39:16;57.92;;;53.83;;
31808;SDS011;18379;48.208;-1.518;2023-08-21T13:44:17;56.63;;;52.83;;
31808;SDS011;18379;48.208;-1.518;2023-08-21T13:49:18;57.22;;;53.33;;
31808;SDS011;18379;48.208;-1.518;2023-08-21T13:54:19;56.83;;;53.13;;
31808;SDS011;18379;48.208;-1.518;2023-08-21T13:59:19;57.95;;;53.75;;
31808;SDS011;18379;48.208;-1.518;2023-08-21T14:04:20;56.88;;;53.08;;
31808;SDS011;18379;48.208;-1.518;2023-08-21T14:09:21;56.92;;;53.13;;
31808;SDS011;18379;48.208;-1.518;2023-08-21T14:14:21;56.97;;;53.20;;
31808;SDS011;18379;48.208;-1.518;2023-08-21T14:19:22;57.45;;;53.53;;
31808;SDS011;18379;48.208;-1.518;2023-08-21T14:24:23;56.78;;;53.08;;
31808;SDS011;18379;48.208;-1.518;2023-08-21T14:29:24;57.08;;;53.28;;
31808;SDS011;18379;48.208;-1.518;2023-08-21T14:34:25;57.17;;;53.40;;
31808;SDS011;18379;48.208;-1.518;2023-08-21T14:39:30;57.90;;;54.00;;
31808;SDS011;18379;48.208;-1.518;2023-08-21T14:44:31;58.42;;;54.47;;
31808;SDS011;18379;48.208;-1.518;2023-08-21T14:49:31;58.85;;;54.75;;
31808;SDS011;18379;48.208;-1.518;2023-08-21T14:54:35;58.05;;;54.15;;
31808;SDS011;18379;48.208;-1.518;2023-08-21T14:59:36;58.17;;;54.17;;
31808;SDS011;18379;48.208;-1.518;2023-08-21T15:04:37;58.72;;;54.60;;
31808;SDS011;18379;48.208;-1.518;2023-08-21T15:09:38;58.58;;;54.50;;
31808;SDS011;18379;48.208;-1.518;2023-08-21T15:14:39;59.58;;;55.47;;
31808;SDS011;18379;48.208;-1.518;2023-08-21T15:19:39;59.25;;;55.13;;
31808;SDS011;18379;48.208;-1.518;2023-08-21T15:24:40;60.13;;;55.83;;
31808;SDS011;18379;48.208;-1.518;2023-08-21T15:29:41;60.10;;;56.00;;
31808;SDS011;18379;48.208;-1.518;2023-08-21T15:34:41;60.00;;;55.80;;
31808;SDS011;18379;48.208;-1.518;2023-08-21T15:39:43;59.92;;;55.60;;
31808;SDS011;18379;48.208;-1.518;2023-08-21T15:44:44;59.50;;;55.20;;
31808;SDS011;18379;48.208;-1.518;2023-08-21T15:49:46;59.50;;;55.30;;
31808;SDS011;18379;48.208;-1.518;2023-08-21T15:54:47;59.30;;;55.22;;
31808;SDS011;18379;48.208;-1.518;2023-08-21T15:59:50;59.63;;;55.55;;
31808;SDS011;18379;48.208;-1.518;2023-08-21T16:04:51;59.60;;;55.38;;
31808;SDS011;18379;48.208;-1.518;2023-08-21T16:09:52;60.03;;;55.92;;
31808;SDS011;18379;48.208;-1.518;2023-08-21T16:14:52;61.25;;;56.70;;
31808;SDS011;18379;48.208;-1.518;2023-08-21T16:19:53;59.65;;;55.45;;
31808;SDS011;18379;48.208;-1.518;2023-08-21T16:24:55;59.92;;;55.78;;
31808;SDS011;18379;48.208;-1.518;2023-08-21T16:29:56;59.47;;;55.20;;
31808;SDS011;18379;48.208;-1.518;2023-08-21T16:34:57;60.50;;;56.10;;
31808;SDS011;18379;48.208;-1.518;2023-08-21T16:39:59;59.55;;;55.45;;
31808;SDS011;18379;48.208;-1.518;2023-08-21T16:44:59;59.47;;;55.47;;
31808;SDS011;18379;48.208;-1.518;2023-08-21T16:50:00;63.05;;;58.20;;
31808;SDS011;18379;48.208;-1.518;2023-08-21T16:55:02;59.90;;;55.65;;
31808;SDS011;18379;48.208;-1.518;2023-08-21T17:00:04;59.08;;;54.90;;
31808;SDS011;18379;48.208;-1.518;2023-08-21T17:05:09;59.47;;;55.17;;
31808;SDS011;18379;48.208;-1.518;2023-08-21T17:10:10;58.53;;;54.47;;
31808;SDS011;18379;48.208;-1.518;2023-08-21T17:15:13;59.05;;;54.97;;
31808;SDS011;18379;48.208;-1.518;2023-08-21T17:20:15;58.88;;;54.92;;
31808;SDS011;18379;48.208;-1.518;2023-08-21T17:25:17;58.00;;;54.00;;
31808;SDS011;18379;48.208;-1.518;2023-08-21T17:30:17;57.72;;;53.92;;
31808;SDS011;18379;48.208;-1.518;2023-08-21T17:35:18;57.65;;;53.85;;
31808;SDS011;18379;48.208;-1.518;2023-08-21T17:40:19;56.95;;;53.20;;
31808;SDS011;18379;48.208;-1.518;2023-08-21T17:45:20;57.50;;;53.65;;
31808;SDS011;18379;48.208;-1.518;2023-08-21T17:50:21;58.03;;;53.92;;
31808;SDS011;18379;48.208;-1.518;2023-08-21T17:55:23;58.28;;;54.08;;
31808;SDS011;18379;48.208;-1.518;2023-08-21T18:00:24;57.72;;;53.63;;
31808;SDS011;18379;48.208;-1.518;2023-08-21T18:05:26;57.95;;;53.75;;
31808;SDS011;18379;48.208;-1.518;2023-08-21T18:10:28;56.97;;;53.05;;
31808;SDS011;18379;48.208;-1.518;2023-08-21T18:15:32;57.17;;;53.28;;
31808;SDS011;18379;48.208;-1.518;2023-08-21T18:26:06;57.28;;;53.03;;
31808;SDS011;18379;48.208;-1.518;2023-08-21T18:31:07;57.17;;;53.08;;
31808;SDS011;18379;48.208;-1.518;2023-08-21T18:36:08;57.25;;;53.15;;
31808;SDS011;18379;48.208;-1.518;2023-08-21T18:41:09;56.58;;;52.60;;
31808;SDS011;18379;48.208;-1.518;2023-08-21T18:46:10;55.67;;;52.10;;
31808;SDS011;18379;48.208;-1.518;2023-08-21T18:51:13;56.13;;;51.87;;
31808;SDS011;18379;48.208;-1.518;2023-08-21T18:56:14;55.80;;;51.83;;
31808;SDS011;18379;48.208;-1.518;2023-08-21T19:01:15;55.93;;;52.13;;
31808;SDS011;18379;48.208;-1.518;2023-08-21T19:06:16;56.07;;;52.10;;
31808;SDS011;18379;48.208;-1.518;2023-08-21T19:11:17;55.37;;;51.53;;
31808;SDS011;18379;48.208;-1.518;2023-08-21T19:16:18;55.80;;;51.63;;
31808;SDS011;18379;48.208;-1.518;2023-08-21T19:21:19;55.27;;;51.40;;
31808;SDS011;18379;48.208;-1.518;2023-08-21T19:26:20;55.87;;;51.83;;
31808;SDS011;18379;48.208;-1.518;2023-08-21T19:31:21;55.07;;;51.17;;
31808;SDS011;18379;48.208;-1.518;2023-08-21T19:36:22;54.67;;;51.27;;
31808;SDS011;18379;48.208;-1.518;2023-08-21T19:41:23;55.33;;;51.60;;
31808;SDS011;18379;48.208;-1.518;2023-08-21T19:46:24;55.40;;;51.60;;
31808;SDS011;18379;48.208;-1.518;2023-08-21T19:51:25;56.40;;;51.70;;
31808;SDS011;18379;48.208;-1.518;2023-08-21T19:56:26;55.60;;;51.73;;
31808;SDS011;18379;48.208;-1.518;2023-08-21T20:01:27;54.73;;;51.03;;
31808;SDS011;18379;48.208;-1.518;2023-08-21T20:06:28;55.03;;;51.27;;
31808;SDS011;18379;48.208;-1.518;2023-08-21T20:11:30;55.00;;;51.27;;
31808;SDS011;18379;48.208;-1.518;2023-08-21T20:16:31;54.63;;;50.93;;
31808;SDS011;18379;48.208;-1.518;2023-08-21T20:21:32;54.20;;;50.60;;
31808;SDS011;18379;48.208;-1.518;2023-08-21T20:26:33;54.80;;;51.23;;
31808;SDS011;18379;48.208;-1.518;2023-08-21T20:31:34;54.63;;;51.00;;
31808;SDS011;18379;48.208;-1.518;2023-08-21T20:36:35;54.40;;;50.97;;
31808;SDS011;18379;48.208;-1.518;2023-08-21T20:41:36;54.57;;;50.87;;
31808;SDS011;18379;48.208;-1.518;2023-08-21T20:46:38;54.87;;;51.27;;
31808;SDS011;18379;48.208;-1.518;2023-08-21T20:51:39;54.93;;;51.17;;
31808;SDS011;18379;48.208;-1.518;2023-08-21T20:56:39;54.80;;;51.10;;
31808;SDS011;18379;48.208;-1.518;2023-08-21T21:01:40;54.20;;;50.40;;
31808;SDS011;18379;48.208;-1.518;2023-08-21T21:06:41;54.77;;;50.87;;
31808;SDS011;18379;48.208;-1.518;2023-08-21T21:11:43;54.93;;;50.93;;
31808;SDS011;18379;48.208;-1.518;2023-08-21T21:16:44;55.60;;;51.60;;
31808;SDS011;18379;48.208;-1.518;2023-08-21T21:21:45;55.87;;;51.77;;
31808;SDS011;18379;48.208;-1.518;2023-08-21T21:26:46;55.00;;;51.20;;
31808;SDS011;18379;48.208;-1.518;2023-08-21T21:31:47;54.77;;;51.00;;
31808;SDS011;18379;48.208;-1.518;2023-08-21T21:36:47;55.43;;;51.63;;
31808;SDS011;18379;48.208;-1.518;2023-08-21T21:41:48;56.77;;;52.67;;
31808;SDS011;18379;48.208;-1.518;2023-08-21T21:46:49;55.77;;;51.87;;
31808;SDS011;18379;48.208;-1.518;2023-08-21T21:51:50;56.50;;;52.53;;
31808;SDS011;18379;48.208;-1.518;2023-08-21T21:56:51;56.47;;;52.37;;
31808;SDS011;18379;48.208;-1.518;2023-08-21T22:01:52;56.77;;;52.50;;
31808;SDS011;18379;48.208;-1.518;2023-08-21T22:06:52;57.07;;;52.87;;
31808;SDS011;18379;48.208;-1.518;2023-08-21T22:11:53;56.90;;;52.47;;
31808;SDS011;18379;48.208;-1.518;2023-08-21T22:16:54;55.60;;;51.87;;
31808;SDS011;18379;48.208;-1.518;2023-08-21T22:21:55;56.47;;;52.33;;
31808;SDS011;18379;48.208;-1.518;2023-08-21T22:26:55;55.97;;;52.13;;
31808;SDS011;18379;48.208;-1.518;2023-08-21T22:31:57;55.83;;;51.77;;
31808;SDS011;18379;48.208;-1.518;2023-08-21T22:36:57;55.80;;;51.63;;
31808;SDS011;18379;48.208;-1.518;2023-08-21T22:41:58;56.40;;;52.33;;
31808;SDS011;18379;48.208;-1.518;2023-08-21T22:46:59;56.90;;;52.60;;
31808;SDS011;18379;48.208;-1.518;2023-08-21T22:52:00;56.13;;;52.00;;
31808;SDS011;18379;48.208;-1.518;2023-08-21T22:57:01;56.67;;;52.63;;
31808;SDS011;18379;48.208;-1.518;2023-08-21T23:02:02;56.17;;;52.13;;
31808;SDS011;18379;48.208;-1.518;2023-08-21T23:07:03;55.73;;;51.93;;
31808;SDS011;18379;48.208;-1.518;2023-08-21T23:12:04;56.27;;;52.47;;
31808;SDS011;18379;48.208;-1.518;2023-08-21T23:17:05;56.13;;;52.03;;
31808;SDS011;18379;48.208;-1.518;2023-08-21T23:22:07;55.47;;;51.40;;
31808;SDS011;18379;48.208;-1.518;2023-08-21T23:27:08;57.43;;;53.30;;
31808;SDS011;18379;48.208;-1.518;2023-08-21T23:32:09;57.23;;;52.60;;
31808;SDS011;18379;48.208;-1.518;2023-08-21T23:37:10;56.57;;;52.27;;
31808;SDS011;18379;48.208;-1.518;2023-08-21T23:42:10;56.27;;;52.07;;
31808;SDS011;18379;48.208;-1.518;2023-08-21T23:47:11;56.07;;;51.97;;
31808;SDS011;18379;48.208;-1.518;2023-08-21T23:52:12;56.53;;;52.40;;
31808;SDS011;18379;48.208;-1.518;2023-08-21T23:57:13;56.50;;;52.47;;
